Tucumcari ASC

2021-03-02 06:25:00

  • imperial
Date Time Air Temperature Relative Humidity Dewpoint Windchill Heat Index Wind Speed Wind Dir. Rain Solar Radiation Soil Temperature
2m 2m 3m 3m 10cm
US/Mountain F % F F F MPH deg in MJ/m^2 F
max avg avg
2021-03-01 06:30:00 19.7 57.6 7.2 14.9 19.7 3.3 3.3 1.9 293.6 285.3 0.00 0.0011942 38.0
2021-03-01 06:35:00 20.4 56.1 7.2 20.4 20.4 2.2 3.7 3.1 314.0 303.5 0.00 0.0025560 37.9
2021-03-01 06:40:00 20.6 55.4 7.2 20.6 20.6 1.0 2.2 1.0 235.1 260.7 0.00 0.0041438 37.9
2021-03-01 06:45:00 21.0 55.1 7.4 21.0 21.0 1.5 1.9 1.2 302.5 278.9 0.00 0.0130959 37.8
2021-03-01 06:50:00 21.8 53.3 7.4 21.8 21.8 2.1 2.6 2.1 283.6 276.5 0.00 0.0196047 37.7
2021-03-01 06:55:00 22.3 52.8 7.7 22.3 22.3 2.8 3.5 2.9 290.1 284.1 0.00 0.0240775 37.7
2021-03-01 07:00:00 23.5 52.0 8.4 23.5 23.5 1.5 3.0 2.3 222.9 248.1 0.00 0.0287780 37.6
2021-03-01 07:05:00 24.6 50.0 8.5 24.6 24.6 1.5 1.9 1.5 210.0 223.8 0.00 0.0333788 37.6
2021-03-01 07:10:00 24.9 49.1 8.5 24.9 24.9 0.8 2.2 1.7 197.6 224.7 0.00 0.0382769 37.6
2021-03-01 07:15:00 25.8 47.6 8.6 25.8 25.8 0.0 0.8 0.0 195.0 208.3 0.00 0.0431577 37.6
2021-03-01 07:20:00 26.5 46.3 8.6 26.5 26.5 0.0 1.3 0.3 270.4 229.8 0.00 0.0480641 37.6
2021-03-01 07:25:00 26.8 46.4 8.9 26.8 26.8 0.0 1.7 0.6 186.4 251.7 0.00 0.0528667 37.6
2021-03-01 07:30:00 27.3 45.2 8.8 27.3 27.3 2.6 3.1 2.1 271.9 228.5 0.00 0.0580465 37.7
2021-03-01 07:35:00 27.8 44.4 8.8 23.8 27.8 3.5 3.7 2.7 201.0 219.5 0.00 0.0632736 37.7
2021-03-01 07:40:00 27.9 44.2 8.9 23.3 27.9 4.0 4.4 3.7 240.2 237.6 0.00 0.0684865 37.8
2021-03-01 07:45:00 28.5 43.8 9.3 24.0 28.5 4.0 4.4 3.5 246.2 232.5 0.00 0.0736262 37.9
2021-03-01 07:50:00 29.1 43.1 9.4 24.9 29.1 3.8 5.3 4.1 267.8 258.5 0.00 0.0789366 37.9
2021-03-01 07:55:00 30.4 41.7 9.9 25.8 30.4 4.4 4.7 3.7 247.9 236.4 0.00 0.0839384 38.0
2021-03-01 08:00:00 31.2 40.2 9.8 25.9 31.2 5.3 5.3 3.9 243.6 238.0 0.00 0.0891092 38.1
2021-03-01 08:05:00 31.7 39.8 10.0 27.8 31.7 3.8 5.3 4.0 208.1 237.7 0.00 0.0940584 38.3
2021-03-01 08:10:00 32.2 38.8 9.8 27.0 32.2 5.3 5.3 4.4 270.2 255.9 0.00 0.0992548 38.4
2021-03-01 08:20:00 33.4 35.5 9.0 29.7 33.4 4.0 5.1 3.7 270.9 274.5 0.00 0.0878504 38.6
2021-03-01 08:25:00 33.6 36.1 9.6 29.7 33.6 4.2 5.6 3.7 293.8 286.0 0.00 0.1141828 38.7
2021-03-01 08:30:00 34.1 36.3 10.1 30.5 34.1 4.0 6.5 4.7 309.1 303.6 0.00 0.1193629 38.8
2021-03-01 08:35:00 34.2 36.6 10.4 29.4 34.2 5.3 7.1 5.5 311.8 303.7 0.00 0.1246557 38.9
2021-03-01 08:40:00 33.9 36.7 10.1 29.4 33.9 4.9 6.9 5.7 301.4 301.4 0.00 0.1292423 39.0
2021-03-01 08:45:00 34.1 36.6 10.3 34.1 34.1 3.0 8.0 5.5 342.9 306.2 0.00 0.1341899 39.0
2021-03-01 08:50:00 34.6 36.3 10.6 31.9 34.6 3.3 5.6 3.6 294.1 301.4 0.00 0.1389107 39.1
2021-03-01 08:55:00 35.2 35.1 10.3 30.3 35.2 5.6 6.0 4.1 294.2 306.3 0.00 0.1435775 39.1
2021-03-01 09:00:00 35.1 36.4 11.0 31.4 35.1 4.2 5.6 4.4 309.2 301.4 0.00 0.1482857 39.1
2021-03-01 09:05:00 35.8 35.8 11.3 31.4 35.8 5.1 5.5 4.0 23.9 309.0 0.00 0.1531833 39.1
2021-03-01 09:10:00 36.6 33.9 10.8 32.8 36.6 4.6 6.7 4.8 315.4 349.1 0.00 0.1579234 39.1
2021-03-01 09:15:00 36.9 33.1 10.5 32.3 36.9 5.6 6.3 5.1 326.2 320.6 0.00 0.1624775 39.1
2021-03-01 09:20:00 37.5 33.1 11.0 32.9 37.5 5.8 6.9 5.3 326.0 335.1 0.00 0.1670824 39.1
2021-03-01 09:25:00 37.0 32.5 10.2 31.7 37.0 6.7 9.2 6.0 296.1 315.6 0.00 0.1714594 39.1
2021-03-01 09:30:00 37.7 32.1 10.5 32.1 37.7 7.4 8.1 6.6 295.2 303.9 0.00 0.1758749 39.1
2021-03-01 09:35:00 38.2 32.5 11.2 34.4 38.2 4.9 7.6 6.2 337.7 311.1 0.00 0.1801877 39.2
2021-03-01 09:40:00 38.1 31.1 10.2 35.5 38.1 3.7 8.5 6.4 278.2 307.9 0.00 0.1843773 39.2
2021-03-01 09:45:00 38.7 31.1 10.7 32.6 38.7 8.8 8.8 5.6 314.7 292.9 0.00 0.1882202 39.4
2021-03-01 09:50:00 38.8 30.6 10.4 34.3 38.8 6.0 9.4 7.1 326.3 313.1 0.00 0.1923256 39.6
2021-03-01 09:55:00 39.1 31.0 11.0 33.7 39.1 7.6 7.6 5.7 341.5 301.8 0.00 0.1958172 39.8
2021-03-01 10:00:00 40.0 30.1 11.2 33.8 40.0 9.6 9.7 7.5 312.2 313.3 0.00 0.1998287 40.2
2021-03-01 10:05:00 40.6 28.7 10.6 35.9 40.6 6.9 10.5 7.6 278.7 296.5 0.00 0.2033894 40.5
2021-03-01 10:10:00 40.9 28.6 10.7 36.6 40.9 6.2 10.1 7.4 288.5 317.0 0.00 0.2067437 40.9
2021-03-01 10:15:00 41.3 28.4 10.9 35.2 41.3 9.9 10.5 7.1 307.1 294.3 0.00 0.2100115 41.3
2021-03-01 10:20:00 41.4 28.7 11.2 37.8 41.4 5.5 10.3 6.3 9.4 312.0 0.00 0.2131509 41.7
2021-03-01 10:25:00 42.1 27.5 10.9 37.7 42.1 6.9 9.4 6.9 320.1 301.7 0.00 0.2163192 42.2
2021-03-01 10:30:00 42.3 27.0 10.7 39.5 42.3 4.6 7.2 5.1 318.5 317.6 0.00 0.2192507 42.6
2021-03-01 10:35:00 43.3 26.5 11.1 39.8 43.3 5.6 8.3 5.5 303.1 319.6 0.00 0.2222028 43.0
2021-03-01 10:40:00 44.0 26.1 11.3 40.3 44.0 6.3 6.3 4.6 314.6 296.1 0.00 0.2249163 43.4
2021-03-01 10:45:00 43.1 25.6 10.1 39.7 43.1 5.6 8.3 5.9 348.1 339.6 0.00 0.2270319 43.8
2021-03-01 10:50:00 43.1 25.5 10.1 41.5 43.1 3.3 8.0 4.8 30.4 350.9 0.00 0.2290371 44.3
2021-03-01 10:55:00 43.9 23.8 9.2 42.4 43.9 3.3 8.8 6.1 349.5 334.6 0.00 0.2319190 44.7
2021-03-01 11:00:00 44.5 23.1 9.0 41.9 44.5 4.7 4.9 3.2 32.0 14.8 0.00 0.2336843 45.2
2021-03-01 11:05:00 44.1 23.9 9.5 44.1 44.1 3.0 8.0 3.6 2.1 8.3 0.00 0.2355447 45.6
2021-03-01 11:10:00 44.9 24.1 10.3 40.5 44.9 8.1 8.3 5.2 314.9 357.5 0.00 0.2378132 46.0
2021-03-01 11:15:00 44.4 24.4 10.2 40.8 44.4 6.3 7.8 5.8 300.2 342.7 0.00 0.2391938 46.5
2021-03-01 11:20:00 45.6 23.4 10.2 44.3 45.6 3.3 6.7 3.0 271.9 273.7 0.00 0.2403163 46.9
2021-03-01 11:25:00 46.1 22.6 9.9 43.3 46.1 5.5 6.0 4.6 312.8 273.4 0.00 0.2426038 47.3
2021-03-01 11:30:00 45.3 23.1 9.7 41.5 45.3 7.1 10.3 5.4 274.9 287.7 0.00 0.2435151 47.7
2021-03-01 11:35:00 45.1 22.8 9.2 41.9 45.1 5.8 9.6 5.7 12.6 308.1 0.00 0.2446599 48.1
2021-03-01 11:40:00 45.3 21.4 8.0 41.0 45.3 8.0 10.3 6.6 325.4 332.0 0.00 0.2453637 48.5
2021-03-01 11:45:00 45.4 21.7 8.3 45.4 45.4 3.0 7.1 5.1 254.2 326.7 0.00 0.2461790 48.9
2021-03-01 11:50:00 46.5 21.3 9.0 44.6 46.5 4.4 6.2 3.7 20.9 43.2 0.00 0.2471769 49.3
2021-03-01 11:55:00 46.9 20.8 8.7 42.7 46.9 8.5 12.8 6.3 331.6 319.5 0.00 0.2473771 49.7
2021-03-01 12:00:00 46.0 21.3 8.5 42.5 46.0 6.7 9.7 7.0 300.6 328.1 0.00 0.2472314 50.0
2021-03-01 12:05:00 46.9 20.8 8.7 45.2 46.9 4.0 10.8 5.7 31.2 319.8 0.00 0.2478905 50.4
2021-03-01 12:10:00 46.9 20.7 8.7 45.5 46.9 3.7 7.8 4.3 313.1 304.5 0.00 0.2480901 50.8
2021-03-01 12:15:00 47.2 20.6 8.8 45.3 47.2 4.4 7.6 4.5 48.3 344.3 0.00 0.2470583 51.1
2021-03-01 12:20:00 47.6 20.4 9.0 46.4 47.6 3.7 4.9 3.1 259.9 143.3 0.00 0.2466496 51.4
2021-03-01 12:25:00 46.2 20.9 8.3 42.1 46.2 8.1 9.9 8.0 273.1 291.8 0.00 0.2463566 51.7
2021-03-01 12:30:00 46.5 20.5 8.1 44.1 46.5 5.1 8.3 4.0 300.0 263.6 0.00 0.2452848 52.1
2021-03-01 12:35:00 47.2 19.0 7.0 46.4 47.2 3.1 8.5 6.3 248.3 292.8 0.00 0.2455681 52.4
2021-03-01 12:40:00 47.8 18.8 7.2 46.9 47.8 3.3 4.4 3.2 71.8 44.7 0.00 0.2436477 52.7
2021-03-01 12:45:00 48.3 19.5 8.5 48.3 48.3 1.3 4.2 2.7 92.5 91.7 0.00 0.2431203 53.0
2021-03-01 12:50:00 48.3 18.8 7.6 47.0 48.3 3.8 5.8 3.4 261.3 220.7 0.00 0.2420001 53.3
2021-03-01 12:55:00 47.9 19.2 7.8 45.4 47.9 5.5 8.3 4.9 9.1 299.0 0.00 0.2408202 53.6
2021-03-01 13:00:00 48.1 18.9 7.6 45.4 48.1 5.8 8.8 6.4 313.6 309.3 0.00 0.2389265 53.9
2021-03-01 13:05:00 48.2 18.5 7.3 46.7 48.2 4.2 6.9 4.8 201.3 304.2 0.00 0.2373136 54.1
2021-03-01 13:10:00 47.6 18.1 6.3 47.6 47.6 1.9 7.4 4.7 312.9 289.1 0.00 0.2354875 54.4
2021-03-01 13:15:00 48.6 17.3 6.0 48.6 48.6 1.9 5.3 2.9 77.2 353.2 0.00 0.2335804 54.7
2021-03-01 13:20:00 49.8 17.3 7.1 48.1 49.8 4.7 4.7 2.0 338.9 350.8 0.00 0.2312824 54.9
2021-03-01 13:25:00 49.8 17.0 6.7 47.1 49.8 6.7 9.2 3.7 226.1 220.2 0.00 0.2286243 55.2
2021-03-01 13:30:00 48.5 18.0 6.9 48.5 48.5 0.0 6.3 3.6 88.7 169.4 0.00 0.2257709 55.4
2021-03-01 13:35:00 48.5 17.9 6.8 46.5 48.5 4.9 9.4 5.0 153.1 149.7 0.00 0.2239279 55.7
2021-03-01 13:40:00 50.5 17.1 7.4 50.5 50.5 4.6 4.9 2.3 299.3 164.1 0.00 0.2209005 55.9
2021-03-01 13:45:00 49.6 16.8 6.3 49.6 49.6 2.4 7.8 4.7 42.2 328.6 0.00 0.2185025 56.1
2021-03-01 13:50:00 51.0 15.0 4.9 51.0 51.0 4.7 5.1 2.7 282.6 318.2 0.00 0.2156804 56.3
2021-03-01 13:55:00 49.9 15.9 5.3 46.4 49.9 8.5 9.6 6.8 309.7 312.3 0.00 0.2130597 56.5
2021-03-01 14:00:00 50.5 15.6 5.4 50.5 50.5 2.4 6.9 3.8 184.3 216.9 0.00 0.2094534 56.7
2021-03-01 14:05:00 51.0 15.0 4.9 51.0 51.0 8.7 13.7 6.0 329.5 288.7 0.00 0.2062932 56.8
2021-03-01 14:10:00 49.2 15.6 4.2 46.8 49.2 5.6 9.2 6.7 298.9 288.2 0.00 0.2023415 57.0
2021-03-01 14:15:00 49.6 15.7 4.7 48.0 49.6 4.6 7.1 4.0 301.7 279.9 0.00 0.1983037 57.1
2021-03-01 14:20:00 49.9 15.9 5.3 48.4 49.9 4.6 8.3 4.2 19.4 336.0 0.00 0.1944959 57.3
2021-03-01 14:25:00 50.2 15.7 5.3 50.2 50.2 3.7 4.9 3.1 338.8 336.0 0.00 0.1904574 57.4
2021-03-01 14:30:00 51.4 15.3 5.7 51.4 51.4 5.5 6.3 2.9 205.2 276.9 0.00 0.1871386 57.5
2021-03-01 14:35:00 50.9 15.3 5.3 50.9 50.9 5.3 8.1 3.7 266.1 312.8 0.00 0.1828981 57.6
2021-03-01 14:40:00 50.1 15.6 5.1 50.1 50.1 5.3 8.1 5.9 153.9 208.7 0.00 0.1789945 57.7
2021-03-01 14:45:00 50.6 15.6 5.5 50.6 50.6 9.4 10.8 6.0 226.0 192.0 0.00 0.1751937 57.8
2021-03-01 14:50:00 50.5 15.6 5.3 50.5 50.5 8.8 9.4 6.9 227.2 207.3 0.00 0.1712904 57.9
2021-03-01 14:55:00 50.5 15.6 5.3 50.5 50.5 2.2 9.0 3.8 257.1 298.2 0.00 0.1667093 58.0
2021-03-01 15:00:00 50.8 15.3 5.1 50.8 50.8 4.7 7.4 5.0 162.7 206.6 0.00 0.1623270 58.0
2021-03-01 15:05:00 50.8 15.3 5.2 50.8 50.8 3.0 6.7 3.2 183.4 218.5 0.00 0.1572984 58.0
2021-03-01 15:10:00 50.4 15.7 5.4 50.4 50.4 4.0 5.5 3.5 142.5 161.8 0.00 0.1527462 58.1
2021-03-01 15:15:00 50.1 15.9 5.4 50.1 50.1 5.8 7.2 4.9 116.8 125.4 0.00 0.1471517 58.1
2021-03-01 15:20:00 51.1 15.3 5.4 51.1 51.1 4.7 7.1 4.3 280.1 251.7 0.00 0.1445151 58.0
2021-03-01 15:25:00 50.5 15.2 4.7 50.5 50.5 1.0 7.1 4.2 254.2 315.3 0.00 0.1392176 58.0
2021-03-01 15:30:00 51.0 14.9 4.7 51.0 51.0 5.3 5.3 3.3 66.8 5.3 0.00 0.1344735 58.0
2021-03-01 15:35:00 51.1 14.6 4.4 51.1 51.1 3.0 6.3 4.2 3.6 353.8 0.00 0.1297772 57.9
2021-03-01 15:40:00 52.1 14.4 4.8 52.1 52.1 3.3 3.3 2.2 145.8 306.2 0.00 0.1253469 57.9
2021-03-01 15:45:00 50.8 15.3 5.1 50.8 50.8 1.3 6.5 4.3 166.0 173.2 0.00 0.1196563 57.8
2021-03-01 15:50:00 51.7 14.6 5.0 51.7 51.7 5.5 5.5 2.6 17.9 72.4 0.00 0.1151331 57.7
2021-03-01 15:55:00 51.5 14.7 4.9 51.5 51.5 1.5 7.1 3.7 182.2 43.5 0.00 0.1103383 57.6
2021-03-01 16:00:00 51.7 14.9 5.3 51.7 51.7 5.3 6.7 3.6 16.8 355.9 0.00 0.1055697 57.5
2021-03-01 16:05:00 51.7 14.7 5.0 51.7 51.7 2.8 5.5 3.5 336.1 359.3 0.00 0.1013263 57.4
2021-03-01 16:10:00 51.2 15.0 5.1 51.2 51.2 1.9 9.0 4.4 219.3 266.8 0.00 0.0970108 57.3
2021-03-01 16:15:00 51.9 14.5 5.0 51.9 51.9 4.6 5.5 3.5 10.7 13.4 0.00 0.0920030 57.2
2021-03-01 16:20:00 51.4 14.6 4.7 51.4 51.4 4.6 4.7 3.7 56.5 34.7 0.00 0.0868209 57.1
2021-03-01 16:25:00 51.4 15.0 5.2 51.4 51.4 3.3 5.6 3.3 299.0 8.5 0.00 0.0820723 56.9
2021-03-01 16:30:00 51.4 14.5 4.6 51.4 51.4 3.0 5.8 4.1 338.2 13.3 0.00 0.0772397 56.8
2021-03-01 16:35:00 51.2 14.5 4.3 51.2 51.2 2.6 4.9 3.6 69.3 355.4 0.00 0.0718740 56.7
2021-03-01 16:40:00 51.2 12.6 1.3 51.2 51.2 2.2 4.7 2.5 302.3 48.7 0.00 0.0672401 56.6
2021-03-01 16:45:00 52.3 12.3 1.5 52.3 52.3 2.4 2.6 1.3 321.0 45.8 0.00 0.0623092 56.4
2021-03-01 16:50:00 52.2 11.7 0.4 52.2 52.2 5.3 6.7 3.0 304.7 268.8 0.00 0.0574605 56.3
2021-03-01 16:55:00 51.3 12.1 0.6 51.3 51.3 3.0 4.4 3.2 256.7 272.2 0.00 0.0529074 56.2
2021-03-01 17:00:00 51.1 12.0 0.1 51.1 51.1 1.5 3.5 2.8 297.4 290.5 0.00 0.0482263 56.0
2021-03-01 17:05:00 51.6 12.2 0.9 51.6 51.6 3.1 4.2 1.8 259.9 304.0 0.00 0.0436569 55.9
2021-03-01 17:10:00 50.7 13.0 1.6 50.7 50.7 2.8 4.9 3.9 243.0 252.0 0.00 0.0395517 55.7
2021-03-01 17:15:00 50.9 13.1 1.9 50.9 50.9 2.1 2.8 2.2 250.5 250.8 0.00 0.0348749 55.5
2021-03-01 17:20:00 50.5 13.2 1.7 50.5 50.5 2.4 3.0 2.4 144.5 175.6 0.00 0.0301427 55.3
2021-03-01 17:25:00 49.6 14.1 2.5 49.6 49.6 2.8 3.7 2.9 136.5 134.8 0.00 0.0257520 55.1
2021-03-01 17:30:00 49.2 14.1 2.2 49.2 49.2 1.9 3.1 2.5 123.4 133.7 0.00 0.0213542 55.0
2021-03-01 17:35:00 49.2 14.2 2.3 49.2 49.2 2.4 3.0 2.0 137.1 105.6 0.00 0.0166513 54.8
2021-03-01 17:40:00 48.5 14.8 2.5 48.5 48.5 1.9 2.2 1.9 137.2 132.3 0.00 0.0120964 54.6
2021-03-01 17:45:00 47.9 15.0 2.4 47.9 47.9 3.0 3.3 2.2 117.6 128.6 0.00 0.0078952 54.4
2021-03-01 17:50:00 46.8 16.1 3.1 46.8 46.8 2.4 3.5 2.6 125.8 127.4 0.00 0.0024240 54.2
2021-03-01 17:55:00 46.1 17.0 3.7 46.1 46.1 2.8 3.7 2.8 125.7 123.9 0.00 0.0000000 54.0
2021-03-01 18:00:00 45.6 17.6 4.0 45.6 45.6 2.6 3.3 2.7 111.8 123.6 0.00 0.0000000 53.8
2021-03-01 18:05:00 45.0 18.2 4.2 45.0 45.0 3.0 3.7 2.8 142.8 127.3 0.00 0.0000000 53.6
2021-03-01 18:10:00 44.5 18.7 4.3 43.1 44.5 3.3 4.4 3.6 130.3 131.4 0.00 0.0000000 53.4
2021-03-01 18:15:00 43.9 19.4 4.7 41.3 43.9 4.6 4.7 3.0 113.0 114.5 0.00 0.0000000 53.2
2021-03-01 18:20:00 43.1 20.0 4.7 41.1 43.1 3.8 4.6 3.1 97.3 98.6 0.00 0.0000000 53.0
2021-03-01 18:25:00 41.4 20.8 4.1 39.4 41.4 3.5 4.4 3.4 60.0 65.3 0.00 0.0000000 52.8
2021-03-01 18:30:00 41.0 21.3 4.3 39.1 41.0 3.3 3.7 3.2 84.9 81.4 0.00 0.0000000 52.6
2021-03-01 18:35:00 40.8 21.7 4.5 40.8 40.8 3.0 4.2 3.2 95.4 89.1 0.00 0.0000000 52.4
2021-03-01 18:40:00 40.4 21.9 4.5 40.4 40.4 2.4 3.3 2.7 75.7 95.0 0.00 0.0000000 52.2
2021-03-01 18:45:00 40.2 22.2 4.6 40.2 40.2 2.1 3.1 2.4 85.7 96.9 0.00 0.0000000 52.0
2021-03-01 18:50:00 40.0 22.4 4.6 40.0 40.0 2.2 2.8 2.4 79.6 80.3 0.00 0.0000000 51.8
2021-03-01 18:55:00 39.8 22.5 4.5 39.8 39.8 2.8 3.3 2.7 83.7 81.7 0.00 0.0000000 51.6
2021-03-01 19:00:00 39.7 22.5 4.4 39.7 39.7 2.2 3.3 2.4 90.9 95.0 0.00 0.0000000 51.4
2021-03-01 19:05:00 39.6 22.6 4.4 39.6 39.6 2.2 2.8 2.3 90.5 90.8 0.00 0.0000000 51.2
2021-03-01 19:10:00 39.4 22.8 4.4 39.4 39.4 2.1 3.0 2.3 105.8 90.8 0.00 0.0000000 51.0
2021-03-01 19:15:00 38.9 23.1 4.3 38.9 38.9 2.6 2.6 2.4 112.6 90.4 0.00 0.0000000 50.8
2021-03-01 19:20:00 38.7 23.2 4.3 38.7 38.7 2.4 3.1 2.7 115.1 100.9 0.00 0.0000000 50.7
2021-03-01 19:25:00 38.0 23.7 4.1 38.0 38.0 2.8 2.8 2.4 111.1 118.4 0.00 0.0000000 50.5
2021-03-01 19:30:00 37.6 24.2 4.2 35.3 37.6 3.3 3.3 2.9 99.4 90.4 0.00 0.0000000 50.3
2021-03-01 19:35:00 37.2 24.8 4.4 37.2 37.2 3.0 3.5 3.0 122.7 96.6 0.00 0.0000000 50.1
2021-03-01 19:40:00 37.5 24.4 4.3 34.8 37.5 3.7 3.7 3.3 93.5 108.8 0.00 0.0000000 50.0
2021-03-01 19:45:00 37.0 24.7 4.1 34.4 37.0 3.5 3.8 3.4 105.2 95.0 0.00 0.0000000 49.8
2021-03-01 19:50:00 36.9 24.7 4.0 34.3 36.9 3.5 3.8 3.3 93.2 86.1 0.00 0.0000000 49.6
2021-03-01 19:55:00 36.3 25.2 4.0 36.3 36.3 2.6 3.3 2.8 87.1 87.2 0.00 0.0000000 49.5
2021-03-01 20:00:00 36.4 25.3 4.2 36.4 36.4 2.8 3.5 2.9 96.4 95.2 0.00 0.0000000 49.3
2021-03-01 20:05:00 36.7 24.9 4.0 34.0 36.7 3.5 4.0 3.5 85.1 102.1 0.00 0.0000000 49.2
2021-03-01 20:10:00 36.4 25.0 3.9 34.1 36.4 3.1 3.8 3.2 87.7 88.0 0.00 0.0000000 49.0
2021-03-01 20:15:00 36.1 25.4 3.9 33.7 36.1 3.1 3.7 3.2 84.3 90.4 0.00 0.0000000 48.9
2021-03-01 20:20:00 35.8 25.6 3.9 35.8 35.8 3.0 3.7 3.2 85.9 93.1 0.00 0.0000000 48.7
2021-03-01 20:25:00 35.9 25.4 3.8 35.9 35.9 3.0 4.7 3.3 90.4 88.9 0.00 0.0000000 48.6
2021-03-01 20:30:00 35.8 25.5 3.8 35.8 35.8 3.0 3.7 3.0 95.1 94.1 0.00 0.0000000 48.4
2021-03-01 20:35:00 35.7 25.6 3.8 32.9 35.7 3.5 4.0 3.2 92.5 93.0 0.00 0.0000000 48.3
2021-03-01 20:40:00 35.5 25.7 3.7 33.0 35.5 3.1 3.5 3.2 105.7 100.9 0.00 0.0000000 48.1
2021-03-01 20:45:00 35.2 26.2 3.9 35.2 35.2 2.4 3.3 2.7 89.7 96.1 0.00 0.0000000 48.0
2021-03-01 20:50:00 35.3 26.3 4.0 32.9 35.3 3.1 3.7 2.7 90.3 97.0 0.00 0.0000000 47.9
2021-03-01 20:55:00 35.1 26.3 3.8 35.1 35.1 2.8 3.1 2.7 86.8 87.7 0.00 0.0000000 47.7
2021-03-01 21:00:00 34.9 26.5 3.9 34.9 34.9 1.9 3.5 2.6 87.8 82.0 0.00 0.0000000 47.6
2021-03-01 21:05:00 34.8 26.7 4.0 34.8 34.8 1.9 2.6 2.2 139.4 93.9 0.00 0.0000000 47.5
2021-03-01 21:10:00 35.2 26.4 4.0 35.2 35.2 2.1 2.6 2.2 115.7 97.0 0.00 0.0000000 47.3
2021-03-01 21:15:00 35.3 26.3 4.0 32.1 35.3 3.8 3.8 2.4 149.8 119.9 0.00 0.0000000 47.2
2021-03-01 21:20:00 35.2 26.3 3.9 32.8 35.2 3.1 3.8 3.1 142.1 133.0 0.00 0.0000000 47.1
2021-03-01 21:25:00 34.6 26.9 4.0 34.6 34.6 3.0 3.5 3.1 163.6 140.0 0.00 0.0000000 46.9
2021-03-01 21:30:00 34.4 27.2 3.9 31.8 34.4 3.1 5.1 3.6 162.8 160.4 0.00 0.0000000 46.8
2021-03-01 21:35:00 34.2 27.4 4.0 29.4 34.2 5.3 5.6 4.4 176.0 179.8 0.00 0.0000000 46.7
2021-03-01 21:40:00 34.5 27.3 4.1 29.9 34.5 5.1 6.3 5.2 190.8 176.9 0.00 0.0000000 46.6
2021-03-01 21:45:00 34.6 27.0 4.0 30.8 34.6 4.2 5.6 4.5 166.6 174.4 0.00 0.0000000 46.5
2021-03-01 21:50:00 34.6 27.2 4.2 31.2 34.6 3.8 5.5 4.4 169.9 167.7 0.00 0.0000000 46.3
2021-03-01 21:55:00 34.6 27.1 4.1 31.0 34.6 4.0 6.2 4.7 153.9 167.4 0.00 0.0000000 46.2
2021-03-01 22:00:00 34.6 27.2 4.1 31.6 34.6 3.5 4.6 3.9 161.9 164.4 0.00 0.0000000 46.1
2021-03-01 22:05:00 34.7 27.6 4.6 29.3 34.7 6.2 6.3 4.6 176.5 171.3 0.00 0.0000000 46.0
2021-03-01 22:10:00 35.1 27.6 4.9 30.2 35.1 5.6 6.9 5.8 173.7 171.2 0.00 0.0000000 45.9
2021-03-01 22:15:00 34.7 27.8 4.7 31.0 34.7 4.2 6.2 5.0 173.6 172.0 0.00 0.0000000 45.8
2021-03-01 22:20:00 35.1 27.1 4.5 30.3 35.1 5.5 6.7 5.3 177.5 176.9 0.00 0.0000000 45.7
2021-03-01 22:25:00 36.2 26.0 4.6 31.7 36.2 5.3 7.4 6.2 188.2 183.7 0.00 0.0000000 45.6
2021-03-01 22:30:00 36.2 26.1 4.7 31.0 36.2 6.3 7.8 6.5 184.0 181.8 0.00 0.0000000 45.5
2021-03-01 22:35:00 35.6 27.2 5.0 29.5 35.6 7.4 9.6 6.7 174.6 174.8 0.00 0.0000000 45.5
2021-03-01 22:40:00 35.6 27.2 5.0 31.5 35.6 4.7 7.6 6.2 173.4 180.7 0.00 0.0000000 45.4
2021-03-01 22:45:00 35.5 27.4 5.1 31.5 35.5 4.6 6.5 5.3 170.0 183.8 0.00 0.0000000 45.3
2021-03-01 22:50:00 35.3 28.0 5.5 31.5 35.3 4.4 6.9 5.0 193.5 190.1 0.00 0.0000000 45.2
2021-03-01 22:55:00 35.3 28.3 5.6 30.5 35.3 5.5 6.7 5.1 162.9 166.0 0.00 0.0000000 45.1
2021-03-01 23:00:00 34.6 28.9 5.5 34.6 34.6 2.4 5.8 3.9 163.6 165.5 0.00 0.0000000 45.0
2021-03-01 23:05:00 34.0 29.1 5.1 29.6 34.0 4.7 5.5 3.4 183.2 174.2 0.00 0.0000000 45.0
2021-03-01 23:10:00 33.6 28.7 4.5 29.2 33.6 4.7 6.2 4.5 192.2 177.7 0.00 0.0000000 44.9
2021-03-01 23:15:00 33.3 29.1 4.5 29.2 33.3 4.4 7.1 4.3 158.1 183.2 0.00 0.0000000 44.8
2021-03-01 23:20:00 32.9 29.5 4.4 27.5 32.9 5.6 7.4 4.7 210.1 187.1 0.00 0.0000000 44.7
2021-03-01 23:25:00 32.5 29.7 4.2 27.9 32.5 4.7 5.1 4.0 207.6 196.4 0.00 0.0000000 44.7
2021-03-01 23:30:00 32.4 29.6 4.1 26.7 32.4 6.0 6.0 4.0 200.9 190.8 0.00 0.0000000 44.6
2021-03-01 23:35:00 32.3 29.4 3.8 28.3 32.3 4.0 5.8 4.4 165.7 182.4 0.00 0.0000000 44.5
2021-03-01 23:40:00 32.3 29.4 3.8 27.4 32.3 4.9 6.5 5.1 154.2 174.7 0.00 0.0000000 44.4
2021-03-01 23:45:00 31.4 30.6 4.0 28.4 31.4 3.1 5.3 3.6 117.1 149.8 0.00 0.0000000 44.3
2021-03-01 23:50:00 31.0 31.5 4.2 27.8 31.0 3.3 4.4 3.5 149.0 149.9 0.00 0.0000000 44.3
2021-03-01 23:55:00 30.4 32.0 4.0 27.3 30.4 3.1 4.4 3.3 148.7 136.6 0.00 0.0000000 44.2
2021-03-02 00:00:00 30.8 31.4 3.9 26.6 30.8 4.0 5.5 4.1 180.9 164.5 0.00 0.0000000 44.1
2021-03-02 00:05:00 30.9 31.0 3.8 27.9 30.9 3.1 5.3 3.8 171.1 156.7 0.00 0.0000000 44.0
2021-03-02 00:10:00 30.9 31.1 3.8 27.0 30.9 3.8 4.9 3.4 165.6 165.1 0.00 0.0000000 43.9
2021-03-02 00:15:00 31.3 30.6 3.8 26.3 31.3 4.9 5.6 4.0 215.7 188.2 0.00 0.0000000 43.8
2021-03-02 00:20:00 31.8 30.5 4.2 26.3 31.8 5.6 6.9 5.0 201.1 205.6 0.00 0.0000000 43.7
2021-03-02 00:25:00 32.3 30.1 4.3 26.5 32.3 6.0 7.1 6.1 193.5 216.2 0.00 0.0000000 43.7
2021-03-02 00:30:00 32.3 30.2 4.4 27.1 32.3 5.3 7.6 6.0 226.2 211.8 0.00 0.0000000 43.6
2021-03-02 00:35:00 31.9 30.4 4.3 27.9 31.9 4.0 6.2 4.9 224.1 215.2 0.00 0.0000000 43.5
2021-03-02 00:40:00 31.5 31.0 4.3 31.5 31.5 2.6 4.7 2.9 126.8 166.7 0.00 0.0000000 43.4
2021-03-02 00:45:00 30.5 31.9 4.1 30.5 30.5 1.7 3.0 2.4 67.7 101.9 0.00 0.0000000 43.3
2021-03-02 00:50:00 29.8 33.1 4.2 29.8 29.8 2.4 2.8 2.1 128.5 96.0 0.00 0.0000000 43.3
2021-03-02 00:55:00 29.9 32.9 4.2 29.9 29.9 1.7 2.8 1.4 150.6 132.4 0.00 0.0000000 43.2
2021-03-02 01:00:00 30.8 32.0 4.4 26.1 30.8 4.6 5.6 3.6 203.6 176.4 0.00 0.0000000 43.1
2021-03-02 01:05:00 31.3 31.2 4.2 27.6 31.3 3.7 4.4 3.7 160.1 189.9 0.00 0.0000000 43.0
2021-03-02 01:10:00 31.3 31.3 4.4 31.3 31.3 3.0 3.1 2.5 166.1 178.1 0.00 0.0000000 42.9
2021-03-02 01:15:00 31.7 30.8 4.3 27.6 31.7 4.0 4.9 3.0 171.5 162.4 0.00 0.0000000 42.9
2021-03-02 01:20:00 31.7 30.8 4.3 28.0 31.7 3.7 6.3 4.2 183.4 174.7 0.00 0.0000000 42.8
2021-03-02 01:25:00 31.4 31.2 4.4 28.2 31.4 3.3 5.6 4.2 171.1 185.2 0.00 0.0000000 42.7
2021-03-02 01:30:00 30.7 32.4 4.6 26.6 30.7 4.0 5.3 3.6 197.5 177.4 0.00 0.0000000 42.6
2021-03-02 01:35:00 30.4 33.0 4.7 25.9 30.4 4.2 4.7 3.5 182.4 178.4 0.00 0.0000000 42.5
2021-03-02 01:40:00 30.2 33.1 4.6 30.2 30.2 2.6 4.6 3.5 178.6 183.8 0.00 0.0000000 42.4
2021-03-02 01:45:00 30.0 33.7 4.8 25.9 30.0 3.8 4.7 3.5 194.7 183.4 0.00 0.0000000 42.4
2021-03-02 01:50:00 30.5 33.3 4.9 25.9 30.5 4.4 5.5 3.9 210.1 195.7 0.00 0.0000000 42.3
2021-03-02 01:55:00 30.0 34.6 5.3 24.8 30.0 4.9 6.2 4.6 213.8 206.9 0.00 0.0000000 42.2
2021-03-02 02:00:00 29.8 35.4 5.7 23.9 29.8 5.6 6.7 4.4 218.6 201.6 0.00 0.0000000 42.2
2021-03-02 02:05:00 30.0 35.4 5.9 24.3 30.0 5.5 8.0 5.7 193.6 207.6 0.00 0.0000000 42.1
2021-03-02 02:10:00 29.9 36.8 6.7 22.2 29.9 8.1 8.8 5.6 217.0 198.1 0.00 0.0000000 42.0
2021-03-02 02:15:00 29.9 39.6 8.2 22.5 29.9 7.6 9.9 6.6 218.2 209.2 0.00 0.0000000 41.9
2021-03-02 02:20:00 29.8 42.6 9.8 24.7 29.8 4.7 9.9 6.8 225.6 199.2 0.00 0.0000000 41.9
2021-03-02 02:25:00 29.6 46.1 11.4 23.1 29.6 6.3 8.5 6.3 188.8 200.5 0.00 0.0000000 41.8
2021-03-02 02:30:00 29.4 49.7 12.9 21.5 29.4 8.3 8.3 5.6 218.2 196.2 0.00 0.0000000 41.8
2021-03-02 02:35:00 29.7 51.4 14.0 26.0 29.7 3.5 9.6 6.7 206.4 201.0 0.00 0.0000000 41.7
2021-03-02 02:40:00 29.4 53.0 14.4 24.1 29.4 4.9 8.7 5.6 169.6 201.9 0.00 0.0000000 41.6
2021-03-02 02:45:00 29.6 53.4 14.7 23.0 29.6 6.3 7.8 5.4 214.9 196.9 0.00 0.0000000 41.6
2021-03-02 02:50:00 29.6 54.4 15.2 23.4 29.6 6.0 7.6 5.5 187.9 199.6 0.00 0.0000000 41.5
2021-03-02 02:55:00 29.6 55.3 15.5 24.8 29.6 4.4 7.6 5.8 200.0 191.1 0.00 0.0000000 41.5
2021-03-02 03:00:00 29.2 57.5 16.1 22.9 29.2 6.0 8.1 5.6 185.7 199.1 0.00 0.0000000 41.4
2021-03-02 03:05:00 29.2 59.3 16.8 23.3 29.2 5.5 7.8 5.6 210.8 193.7 0.00 0.0000000 41.4
2021-03-02 03:10:00 29.2 60.3 17.2 23.5 29.2 5.3 8.3 5.6 158.2 190.2 0.00 0.0000000 41.3
2021-03-02 03:15:00 29.4 59.7 17.1 24.1 29.4 4.9 8.1 5.6 167.6 179.2 0.00 0.0000000 41.3
2021-03-02 03:20:00 29.2 59.3 16.8 23.8 29.2 4.9 6.2 4.9 174.3 177.8 0.00 0.0000000 41.2
2021-03-02 03:25:00 29.0 59.2 16.6 22.7 29.0 6.0 7.4 5.2 172.0 170.5 0.00 0.0000000 41.1
2021-03-02 03:30:00 28.3 60.4 16.3 23.7 28.3 4.0 6.5 4.4 153.6 154.5 0.00 0.0000000 41.1
2021-03-02 03:35:00 28.0 61.4 16.4 28.0 28.0 2.8 4.9 3.4 122.4 138.4 0.00 0.0000000 41.0
2021-03-02 03:40:00 27.9 62.0 16.6 27.9 27.9 2.6 3.7 2.9 105.7 111.0 0.00 0.0000000 41.0
2021-03-02 03:45:00 27.7 62.2 16.4 24.2 27.7 3.1 4.0 3.1 115.7 111.3 0.00 0.0000000 40.9
2021-03-02 03:50:00 27.5 62.1 16.2 22.4 27.5 4.4 4.6 3.9 123.4 120.6 0.00 0.0000000 40.9
2021-03-02 03:55:00 27.4 62.1 16.1 23.6 27.4 3.3 4.9 3.8 133.8 114.9 0.00 0.0000000 40.8
2021-03-02 04:00:00 27.2 62.0 15.9 23.5 27.2 3.3 4.2 3.6 110.9 113.2 0.00 0.0000000 40.7
2021-03-02 04:05:00 27.0 61.7 15.6 27.0 27.0 2.6 3.5 2.8 90.8 100.9 0.00 0.0000000 40.7
2021-03-02 04:10:00 26.9 62.4 15.7 26.9 26.9 2.8 3.0 2.5 84.6 83.3 0.00 0.0000000 40.6
2021-03-02 04:15:00 26.6 62.0 15.3 26.6 26.6 2.4 3.3 2.7 59.6 79.2 0.00 0.0000000 40.6
2021-03-02 04:20:00 26.7 61.7 15.3 23.1 26.7 3.1 3.3 2.9 62.0 63.9 0.00 0.0000000 40.5
2021-03-02 04:25:00 26.2 61.3 14.7 22.3 26.2 3.3 3.7 3.1 55.8 57.3 0.00 0.0000000 40.4
2021-03-02 04:30:00 26.6 61.3 15.1 22.7 26.6 3.3 4.6 3.8 73.6 60.9 0.00 0.0000000 40.3
2021-03-02 04:35:00 26.9 60.8 15.1 26.9 26.9 2.4 4.7 3.4 68.7 74.6 0.00 0.0000000 40.3
2021-03-02 04:40:00 26.4 62.3 15.2 26.4 26.4 2.2 3.0 2.3 75.6 78.1 0.00 0.0000000 40.2
2021-03-02 04:45:00 26.1 62.6 15.1 26.1 26.1 2.6 2.6 2.3 89.6 85.7 0.00 0.0000000 40.1
2021-03-02 04:50:00 26.3 62.3 15.1 26.3 26.3 2.4 3.1 2.6 90.9 85.5 0.00 0.0000000 40.1
2021-03-02 04:55:00 26.4 60.9 14.7 26.4 26.4 2.8 3.3 2.7 121.9 93.3 0.00 0.0000000 40.0
2021-03-02 05:00:00 26.5 61.4 15.0 26.5 26.5 2.2 2.6 2.1 98.1 113.8 0.00 0.0000000 39.9
2021-03-02 05:05:00 26.6 62.1 15.4 26.6 26.6 2.4 2.6 2.1 100.7 98.5 0.00 0.0000000 39.9
2021-03-02 05:10:00 26.8 62.3 15.6 26.8 26.8 1.0 2.2 1.9 79.0 85.1 0.00 0.0000000 39.8
2021-03-02 05:15:00 26.8 62.6 15.7 26.8 26.8 0.0 1.5 0.4 347.8 95.8 0.00 0.0000000 39.7
2021-03-02 05:20:00 26.8 62.8 15.8 23.2 26.8 3.1 3.7 1.6 1.0 357.9 0.00 0.0000000 39.6
2021-03-02 05:25:00 26.9 62.2 15.7 26.9 26.9 1.5 3.1 2.3 29.1 346.3 0.00 0.0000000 39.6
2021-03-02 05:30:00 27.6 60.4 15.7 27.6 27.6 1.3 1.3 0.3 55.5 38.0 0.00 0.0000000 39.5
2021-03-02 05:35:00 28.0 57.4 14.9 28.0 28.0 1.3 2.6 1.5 303.5 351.2 0.00 0.0000000 39.4
2021-03-02 05:40:00 28.4 56.5 14.8 22.2 28.4 5.6 6.3 3.5 234.2 288.0 0.00 0.0000000 39.3
2021-03-02 05:45:00 28.2 56.1 14.6 24.1 28.2 3.7 6.3 4.5 245.6 249.7 0.00 0.0000000 39.3
2021-03-02 05:50:00 27.8 58.0 14.9 22.3 27.8 4.7 6.5 5.0 250.1 248.9 0.00 0.0000000 39.2
2021-03-02 05:55:00 28.2 57.4 15.1 21.6 28.2 6.2 6.9 4.8 236.3 246.9 0.00 0.0000000 39.1
2021-03-02 06:00:00 28.1 58.3 15.3 24.0 28.1 3.7 5.6 4.4 241.3 247.8 0.00 0.0000000 39.1
2021-03-02 06:05:00 28.2 59.0 15.7 22.5 28.2 5.1 5.3 4.4 243.9 238.2 0.00 0.0000000 39.0
2021-03-02 06:10:00 27.6 60.4 15.7 23.4 27.6 3.7 5.3 4.1 251.4 244.5 0.00 0.0000000 38.9
2021-03-02 06:15:00 27.6 60.9 15.9 23.6 27.6 3.5 4.2 3.8 239.5 237.5 0.00 0.0000000 38.9
2021-03-02 06:20:00 27.7 60.4 15.8 23.8 27.7 3.5 4.2 3.6 240.5 237.3 0.00 0.0000641 38.8
2021-03-02 06:25:00 27.6 60.5 15.7 27.6 27.6 3.0 3.7 3.3 252.0 247.3 0.00 0.0007843 38.8

Data is courtesy of the NM Climate Center. DO NOT USE IN LEGAL PROCEEDINGS.